San Luis, Arizona
Current Conditions -  °F | °C
As of 6:57 AM on Tuesday 27 Jan 2015 (Local Time) from KNYL Reporting Station
Overcast Overcast  
Wind Chill: 57°   Ceiling: 3900
Heat Index: 57°   Visibility: 10mi
Dew Point: 53°   Wind: 14mph
Humidity: 87%   Direction: 40°NE
Pressure: 30.2"   Gusts: NA
Location:  32.49°N, 114.78°W
Report Text: KNYL 271357Z 04012KT 10SM OVC039 14/12 A3020 RMK AO2 SLP224 T01390117
Loading
Personal Weather Stations






























Interactive Weather Map New forecast layout! Learn more

10-Day Weather Forecast

Advertisements
Track Severe Weather on mobile